Time;durP1;ratioP1;P1;durP2;ratioP2;P2;SDS_P1;SDS_P2;PMS_P1;PMS_P2;Temp;Humidity;BMP_temperature;BMP_pressure;BME280_temperature;BME280_humidity;BME280_pressure;Samples;Min_cycle;Max_cycle;Signal;HPM_P1;HPM_P2
2020/12/12 00:00:38;;;;;;;28.87;16.73;;;;;;;;;;4986774;28;20370;-80
2020/12/12 00:03:04;;;;;;;30.87;19.43;;;;;;;;;;4964822;28;20293;-79
2020/12/12 00:05:31;;;;;;;32.30;19.03;;;;;;;;;;4957684;28;20421;-79
2020/12/12 00:07:57;;;;;;;32.27;20.37;;;;;;;;;;4952545;28;20311;-79
2020/12/12 00:10:26;;;;;;;32.70;19.37;;;;;;;;;;4969830;28;20326;-79
2020/12/12 00:12:52;;;;;;;35.43;20.30;;;;;;;;;;4969199;28;21159;-79
2020/12/12 00:15:18;;;;;;;32.27;17.77;;;;;;;;;;4960403;28;20335;-79
2020/12/12 00:17:44;;;;;;;37.00;20.23;;;;;;;;;;4981217;28;20275;-79
2020/12/12 00:20:11;;;;;;;30.13;18.73;;;;;;;;;;4957967;28;20302;-79
2020/12/12 00:22:37;;;;;;;32.23;19.03;;;;;;;;;;4966660;28;20808;-79
2020/12/12 00:25:04;;;;;;;34.10;19.87;;;;;;;;;;4971124;28;20266;-79
2020/12/12 00:27:30;;;;;;;33.27;19.47;;;;;;;;;;4968826;28;20305;-79
2020/12/12 00:29:56;;;;;;;31.87;17.97;;;;;;;;;;4969060;28;20726;-79
2020/12/12 00:32:22;;;;;;;34.07;19.57;;;;;;;;;;4959286;28;20282;-80
2020/12/12 00:34:48;;;;;;;29.57;19.40;;;;;;;;;;4962361;28;20294;-79
2020/12/12 00:37:18;;;;;;;30.30;18.70;;;;;;;;;;4960596;28;20285;-79
2020/12/12 00:39:45;;;;;;;29.00;17.50;;;;;;;;;;4966626;28;20275;-79
2020/12/12 00:42:12;;;;;;;27.67;16.47;;;;;;;;;;4959204;28;20332;-79
2020/12/12 00:44:38;;;;;;;31.10;17.77;;;;;;;;;;4965345;28;20270;-79
2020/12/12 00:47:05;;;;;;;30.43;18.03;;;;;;;;;;4961867;28;20306;-79
2020/12/12 00:49:32;;;;;;;24.03;13.63;;;;;;;;;;4955264;28;20361;-79
2020/12/12 00:51:58;;;;;;;26.10;16.47;;;;;;;;;;4969605;28;20316;-80
2020/12/12 00:54:24;;;;;;;27.80;17.97;;;;;;;;;;4971626;28;20282;-79
2020/12/12 00:56:50;;;;;;;26.10;16.20;;;;;;;;;;4971148;28;20282;-79
2020/12/12 00:59:18;;;;;;;26.33;15.57;;;;;;;;;;4972052;28;20266;-79
2020/12/12 01:01:48;;;;;;;27.50;17.47;;;;;;;;;;4965187;28;20277;-79
2020/12/12 01:04:14;;;;;;;25.30;16.03;;;;;;;;;;4972351;28;20290;-80
2020/12/12 01:06:40;;;;;;;28.17;15.83;;;;;;;;;;4964835;28;20289;-78
2020/12/12 01:09:07;;;;;;;26.37;15.50;;;;;;;;;;4984196;28;20322;-79
2020/12/12 01:11:33;;;;;;;28.53;16.77;;;;;;;;;;4953823;28;20263;-81
2020/12/12 01:13:59;;;;;;;27.53;16.87;;;;;;;;;;4962824;28;20291;-80
2020/12/12 01:16:25;;;;;;;26.13;15.33;;;;;;;;;;4966398;28;20304;-79
2020/12/12 01:18:51;;;;;;;29.03;17.03;;;;;;;;;;4969407;28;20600;-79
2020/12/12 01:21:18;;;;;;;24.97;15.23;;;;;;;;;;4972465;28;20312;-79
2020/12/12 01:23:44;;;;;;;26.03;16.10;;;;;;;;;;4984813;28;20419;-79
2020/12/12 01:26:10;;;;;;;22.57;12.40;;;;;;;;;;4970597;28;20269;-79
2020/12/12 01:28:36;;;;;;;26.40;15.20;;;;;;;;;;4967418;28;20765;-79
2020/12/12 01:31:03;;;;;;;22.50;14.40;;;;;;;;;;4971576;28;20279;-79
2020/12/12 01:33:29;;;;;;;24.30;15.63;;;;;;;;;;4973350;28;20275;-79
2020/12/12 01:35:55;;;;;;;27.80;14.93;;;;;;;;;;4963016;28;20287;-79
2020/12/12 01:38:21;;;;;;;24.90;13.17;;;;;;;;;;4973985;28;20690;-79
2020/12/12 01:40:47;;;;;;;26.27;14.33;;;;;;;;;;4974174;28;20286;-79
2020/12/12 01:43:13;;;;;;;27.20;15.67;;;;;;;;;;4971721;28;20318;-80
2020/12/12 01:45:40;;;;;;;22.30;13.70;;;;;;;;;;4984969;28;20299;-79
2020/12/12 01:48:08;;;;;;;29.33;16.43;;;;;;;;;;4981518;28;20274;-79
2020/12/12 01:50:34;;;;;;;28.30;14.90;;;;;;;;;;4959149;28;20278;-79
2020/12/12 01:53:01;;;;;;;28.83;18.03;;;;;;;;;;4981363;28;20676;-78
2020/12/12 01:55:27;;;;;;;26.90;16.03;;;;;;;;;;4979577;28;20281;-79
2020/12/12 01:57:53;;;;;;;25.57;15.13;;;;;;;;;;4970680;28;20290;-79
2020/12/12 02:00:20;;;;;;;25.03;14.57;;;;;;;;;;4968475;28;20304;-79
2020/12/12 02:02:50;;;;;;;28.13;14.93;;;;;;;;;;4973504;28;20298;-79
2020/12/12 02:05:38;;;;;;;26.00;15.80;;;;;;;;;;4974989;28;20282;-79
2020/12/12 02:08:05;;;;;;;22.30;14.07;;;;;;;;;;4960134;28;20314;-79
2020/12/12 02:10:31;;;;;;;24.00;14.40;;;;;;;;;;4966677;28;20346;-79
2020/12/12 02:12:57;;;;;;;26.63;15.17;;;;;;;;;;4960657;28;20285;-79
2020/12/12 02:15:23;;;;;;;26.57;14.00;;;;;;;;;;4970325;28;20274;-79
2020/12/12 02:17:49;;;;;;;23.10;14.10;;;;;;;;;;4983526;28;20267;-79
2020/12/12 02:20:15;;;;;;;23.37;12.47;;;;;;;;;;4982588;28;20312;-79
2020/12/12 02:22:41;;;;;;;25.73;15.20;;;;;;;;;;4962408;28;20461;-79
2020/12/12 02:25:08;;;;;;;20.77;13.03;;;;;;;;;;4974327;28;20302;-79
2020/12/12 02:27:34;;;;;;;21.83;13.50;;;;;;;;;;4959436;28;20286;-80
2020/12/12 02:30:00;;;;;;;24.90;14.03;;;;;;;;;;4973875;28;20274;-79
2020/12/12 02:32:26;;;;;;;22.07;14.33;;;;;;;;;;4961396;28;20262;-81
2020/12/12 02:34:52;;;;;;;22.13;14.10;;;;;;;;;;4968834;28;20274;-79
2020/12/12 02:37:18;;;;;;;22.70;13.33;;;;;;;;;;4973319;28;20285;-79
2020/12/12 02:39:44;;;;;;;22.50;15.40;;;;;;;;;;4971983;28;20705;-79
2020/12/12 02:42:10;;;;;;;25.43;15.00;;;;;;;;;;4965968;28;20266;-79
2020/12/12 02:44:36;;;;;;;24.63;14.97;;;;;;;;;;4961234;28;20329;-80
2020/12/12 02:47:04;;;;;;;26.63;14.27;;;;;;;;;;4969766;28;20320;-80
2020/12/12 02:49:31;;;;;;;26.27;17.03;;;;;;;;;;4972815;28;20741;-79
2020/12/12 02:51:57;;;;;;;28.33;17.07;;;;;;;;;;4969357;28;20344;-79
2020/12/12 02:54:23;;;;;;;32.20;17.57;;;;;;;;;;4970514;28;20267;-79
2020/12/12 02:56:49;;;;;;;32.70;17.13;;;;;;;;;;4975572;28;20626;-80
2020/12/12 02:59:15;;;;;;;27.43;17.10;;;;;;;;;;4964558;28;20270;-79
2020/12/12 03:01:42;;;;;;;30.03;18.23;;;;;;;;;;4969949;28;20301;-79
2020/12/12 03:04:08;;;;;;;27.77;16.37;;;;;;;;;;4974739;28;20297;-79
2020/12/12 03:06:36;;;;;;;30.30;17.53;;;;;;;;;;4968016;28;20627;-79
2020/12/12 03:09:03;;;;;;;27.80;17.33;;;;;;;;;;4966437;28;20290;-79
2020/12/12 03:11:29;;;;;;;26.97;16.40;;;;;;;;;;4957028;28;20397;-80
2020/12/12 03:13:55;;;;;;;25.67;16.23;;;;;;;;;;4966934;28;20278;-80
2020/12/12 03:16:21;;;;;;;26.37;15.50;;;;;;;;;;4972067;28;20271;-80
2020/12/12 03:18:47;;;;;;;27.20;15.70;;;;;;;;;;4973783;28;20262;-80
2020/12/12 03:21:13;;;;;;;24.60;15.73;;;;;;;;;;4971123;28;20277;-80
2020/12/12 03:23:39;;;;;;;26.17;15.40;;;;;;;;;;4975625;28;20701;-80
2020/12/12 03:26:05;;;;;;;23.60;14.07;;;;;;;;;;4975664;28;20345;-79
2020/12/12 03:28:31;;;;;;;25.37;14.77;;;;;;;;;;4970858;28;20274;-80
2020/12/12 03:30:57;;;;;;;25.83;13.97;;;;;;;;;;4961471;28;20703;-80
2020/12/12 03:33:23;;;;;;;27.23;15.33;;;;;;;;;;4969264;28;20293;-80
2020/12/12 03:35:50;;;;;;;24.50;14.10;;;;;;;;;;4965684;28;20274;-79
2020/12/12 03:38:16;;;;;;;24.60;14.80;;;;;;;;;;4972123;28;20689;-79
2020/12/12 03:40:42;;;;;;;23.23;13.03;;;;;;;;;;4970501;28;20290;-79
2020/12/12 03:43:08;;;;;;;24.33;14.93;;;;;;;;;;4972241;28;20701;-79
2020/12/12 03:45:34;;;;;;;22.67;14.23;;;;;;;;;;4967029;28;20309;-80
2020/12/12 03:48:00;;;;;;;22.30;13.97;;;;;;;;;;4993313;28;20257;-79
2020/12/12 03:50:29;;;;;;;21.37;13.03;;;;;;;;;;4962499;28;20302;-79
2020/12/12 03:52:56;;;;;;;23.70;14.53;;;;;;;;;;4969035;28;20278;-80
2020/12/12 03:55:22;;;;;;;21.67;13.73;;;;;;;;;;4975345;28;20282;-81
2020/12/12 03:57:48;;;;;;;25.03;14.30;;;;;;;;;;4980292;28;20275;-79
2020/12/12 04:00:14;;;;;;;23.30;13.93;;;;;;;;;;4962404;28;20289;-79
2020/12/12 04:02:40;;;;;;;24.87;14.80;;;;;;;;;;4967661;28;20294;-79
2020/12/12 04:05:06;;;;;;;22.97;14.37;;;;;;;;;;4987037;28;20286;-80
2020/12/12 04:07:32;;;;;;;19.63;12.40;;;;;;;;;;4975984;28;20638;-79
2020/12/12 04:09:58;;;;;;;23.00;14.87;;;;;;;;;;4973762;28;20329;-79
2020/12/12 04:12:24;;;;;;;28.93;17.50;;;;;;;;;;4968620;28;20270;-79
2020/12/12 04:14:50;;;;;;;30.60;17.23;;;;;;;;;;4955988;28;20299;-79
2020/12/12 04:17:16;;;;;;;84.67;39.13;;;;;;;;;;4970005;28;20406;-79
2020/12/12 04:19:43;;;;;;;55.00;26.83;;;;;;;;;;4964179;28;20361;-79
2020/12/12 04:22:09;;;;;;;63.33;29.53;;;;;;;;;;4970954;28;20266;-79
2020/12/12 04:24:35;;;;;;;33.50;18.40;;;;;;;;;;4961029;28;20346;-80
2020/12/12 04:27:01;;;;;;;30.13;17.10;;;;;;;;;;4982587;28;20294;-79
2020/12/12 04:29:27;;;;;;;24.43;15.97;;;;;;;;;;4953816;28;20274;-79
2020/12/12 04:31:53;;;;;;;29.47;17.30;;;;;;;;;;4963592;28;20281;-80
2020/12/12 04:34:19;;;;;;;25.07;15.10;;;;;;;;;;4955708;28;20647;-79
2020/12/12 04:36:45;;;;;;;21.97;14.20;;;;;;;;;;4966009;28;20263;-79
2020/12/12 04:39:12;;;;;;;22.87;13.73;;;;;;;;;;4971662;28;20288;-80
2020/12/12 04:41:41;;;;;;;21.90;14.17;;;;;;;;;;4958024;28;20286;-80
2020/12/12 04:44:08;;;;;;;22.70;13.13;;;;;;;;;;4963169;28;20334;-79
2020/12/12 04:46:35;;;;;;;22.67;13.47;;;;;;;;;;4970920;28;20263;-80
2020/12/12 04:49:01;;;;;;;24.87;15.17;;;;;;;;;;4964626;28;20278;-80
2020/12/12 04:51:29;;;;;;;24.23;14.93;;;;;;;;;;4962319;28;20307;-79
2020/12/12 04:53:58;;;;;;;20.90;13.33;;;;;;;;;;4968269;28;20293;-79
2020/12/12 04:56:25;;;;;;;22.10;12.73;;;;;;;;;;4975877;28;20277;-79
2020/12/12 04:58:51;;;;;;;19.87;12.80;;;;;;;;;;4970288;28;20282;-79
2020/12/12 05:01:18;;;;;;;23.13;14.10;;;;;;;;;;4967710;28;20290;-79
2020/12/12 05:03:45;;;;;;;24.00;12.50;;;;;;;;;;4965260;28;20317;-79
2020/12/12 05:06:12;;;;;;;21.80;14.17;;;;;;;;;;4964603;28;20267;-79
2020/12/12 05:08:38;;;;;;;22.30;14.73;;;;;;;;;;4964155;28;20274;-79
2020/12/12 05:11:04;;;;;;;22.37;13.70;;;;;;;;;;4968613;28;20631;-80
2020/12/12 05:13:31;;;;;;;21.53;13.47;;;;;;;;;;4955152;28;20765;-78
2020/12/12 05:15:58;;;;;;;21.23;12.97;;;;;;;;;;4971836;28;20288;-80
2020/12/12 05:18:25;;;;;;;21.63;13.33;;;;;;;;;;4971700;28;20285;-79
2020/12/12 05:20:51;;;;;;;18.50;12.10;;;;;;;;;;4966215;28;21106;-79
2020/12/12 05:23:22;;;;;;;20.37;12.10;;;;;;;;;;4953999;28;20998;-79
2020/12/12 05:25:49;;;;;;;21.13;13.03;;;;;;;;;;4963773;28;20286;-79
2020/12/12 05:28:16;;;;;;;20.83;12.87;;;;;;;;;;4969112;28;20330;-79
2020/12/12 05:30:43;;;;;;;20.87;11.80;;;;;;;;;;4957042;28;20275;-79
2020/12/12 05:33:10;;;;;;;21.47;11.57;;;;;;;;;;4959556;28;20275;-79
2020/12/12 05:35:36;;;;;;;21.60;12.13;;;;;;;;;;4963672;28;20359;-79
2020/12/12 05:38:03;;;;;;;20.23;12.40;;;;;;;;;;4963725;28;20291;-79
2020/12/12 05:40:29;;;;;;;19.00;11.67;;;;;;;;;;4960401;28;20278;-79
2020/12/12 05:42:56;;;;;;;18.93;11.20;;;;;;;;;;4993632;28;20297;-80
2020/12/12 05:45:22;;;;;;;19.63;11.53;;;;;;;;;;4973709;28;20290;-79
2020/12/12 05:47:48;;;;;;;16.60;10.40;;;;;;;;;;4979438;28;20291;-79
2020/12/12 05:50:14;;;;;;;20.87;12.07;;;;;;;;;;4979407;28;20278;-79
2020/12/12 05:52:41;;;;;;;20.47;12.30;;;;;;;;;;4990700;28;20309;-80
2020/12/12 05:55:07;;;;;;;19.67;11.27;;;;;;;;;;4992960;28;20373;-79
2020/12/12 05:57:34;;;;;;;18.10;10.37;;;;;;;;;;4980833;28;20287;-79
2020/12/12 06:00:01;;;;;;;18.10;11.17;;;;;;;;;;4982398;28;20274;-80
2020/12/12 06:02:29;;;;;;;18.33;11.07;;;;;;;;;;4980729;28;20479;-79
2020/12/12 06:04:57;;;;;;;18.87;11.17;;;;;;;;;;4987253;28;20354;-79
2020/12/12 06:07:30;;;;;;;21.20;12.30;;;;;;;;;;4982053;28;20275;-80
2020/12/12 06:09:58;;;;;;;23.23;13.40;;;;;;;;;;4978691;28;20275;-79
2020/12/12 06:12:24;;;;;;;21.70;14.10;;;;;;;;;;4993545;28;20022;-79
2020/12/12 06:14:54;;;;;;;24.03;13.50;;;;;;;;;;4993721;28;20271;-79
2020/12/12 06:17:26;;;;;;;22.17;13.93;;;;;;;;;;4986503;28;20263;-79
2020/12/12 06:19:53;;;;;;;21.23;13.50;;;;;;;;;;5001301;28;20432;-80
2020/12/12 06:22:25;;;;;;;21.70;13.50;;;;;;;;;;4983906;28;20289;-80
2020/12/12 06:24:58;;;;;;;20.70;12.00;;;;;;;;;;4980335;28;20278;-79
2020/12/12 06:27:26;;;;;;;19.40;12.38;;;;;;;;;;4995277;28;20260;-79
2020/12/12 06:29:53;;;;;;;21.83;12.43;;;;;;;;;;4983972;28;20038;-80
2020/12/12 06:32:19;;;;;;;19.37;12.03;;;;;;;;;;4977473;28;20319;-80
2020/12/12 06:34:47;;;;;;;23.33;14.17;;;;;;;;;;4985412;28;20268;-80
2020/12/12 06:37:31;;;;;;;25.20;14.40;;;;;;;;;;4990370;28;20310;-79
2020/12/12 06:39:58;;;;;;;25.60;13.47;;;;;;;;;;4996628;28;20382;-80
2020/12/12 06:42:35;;;;;;;21.13;12.97;;;;;;;;;;4996433;28;20262;-80
2020/12/12 06:45:25;;;;;;;22.90;12.23;;;;;;;;;;4993765;28;20354;-81
2020/12/12 06:47:54;;;;;;;22.33;13.20;;;;;;;;;;4992978;28;20275;-80
2020/12/12 06:50:25;;;;;;;22.70;12.73;;;;;;;;;;4999732;28;20267;-80
2020/12/12 06:52:53;;;;;;;21.60;13.50;;;;;;;;;;4998455;28;20297;-80
2020/12/12 06:55:21;;;;;;;23.07;13.47;;;;;;;;;;5003562;28;20259;-81
2020/12/12 06:57:49;;;;;;;21.57;14.57;;;;;;;;;;5007652;28;20286;-80
2020/12/12 07:03:23;;;;;;;20.73;13.47;;;;;;;;;;4996959;28;20286;-81
2020/12/12 07:05:49;;;;;;;21.80;13.50;;;;;;;;;;4987106;28;20277;-82
2020/12/12 07:08:15;;;;;;;23.40;14.00;;;;;;;;;;4996244;28;20284;-80
2020/12/12 07:10:42;;;;;;;23.60;14.50;;;;;;;;;;4997136;28;20267;-80
2020/12/12 07:13:09;;;;;;;26.07;14.27;;;;;;;;;;4996194;28;20309;-82
2020/12/12 07:15:37;;;;;;;25.40;15.03;;;;;;;;;;4984502;28;20259;-81
2020/12/12 07:18:08;;;;;;;24.20;14.50;;;;;;;;;;4996898;28;20282;-80
2020/12/12 07:20:38;;;;;;;25.53;15.87;;;;;;;;;;4990098;28;20266;-80
2020/12/12 07:23:05;;;;;;;22.90;13.93;;;;;;;;;;4984971;28;20293;-80
2020/12/12 07:25:32;;;;;;;26.90;15.33;;;;;;;;;;4999070;28;20275;-81
2020/12/12 07:27:58;;;;;;;25.90;15.97;;;;;;;;;;4988127;28;20287;-80
2020/12/12 07:30:24;;;;;;;26.07;15.83;;;;;;;;;;4999407;28;20289;-80
2020/12/12 07:32:50;;;;;;;28.13;16.73;;;;;;;;;;5015058;28;20305;-80
2020/12/12 07:35:16;;;;;;;31.03;16.43;;;;;;;;;;4982287;28;20281;-81
2020/12/12 07:37:51;;;;;;;28.33;17.67;;;;;;;;;;4987235;28;20320;-80
2020/12/12 07:40:19;;;;;;;27.87;17.10;;;;;;;;;;4972769;28;20278;-80
2020/12/12 07:42:45;;;;;;;27.17;16.20;;;;;;;;;;4987294;28;20299;-81
2020/12/12 07:47:40;;;;;;;21.07;13.63;;;;;;;;;;4957537;28;20275;-80
2020/12/12 07:50:06;;;;;;;21.03;13.33;;;;;;;;;;4961060;28;20269;-79
2020/12/12 07:52:33;;;;;;;24.87;15.10;;;;;;;;;;4972340;28;20321;-79
2020/12/12 07:55:10;;;;;;;24.07;14.67;;;;;;;;;;4978707;28;20282;-78
2020/12/12 07:57:43;;;;;;;22.33;14.10;;;;;;;;;;4975190;28;20262;-79
2020/12/12 08:00:10;;;;;;;19.13;12.60;;;;;;;;;;4977528;28;20277;-79
2020/12/12 08:02:36;;;;;;;22.03;13.43;;;;;;;;;;4964389;28;20274;-78
2020/12/12 08:05:05;;;;;;;20.90;13.33;;;;;;;;;;4952601;28;20287;-79
2020/12/12 08:07:31;;;;;;;19.63;12.33;;;;;;;;;;4960851;28;20307;-77
2020/12/12 08:09:58;;;;;;;20.07;12.03;;;;;;;;;;4964995;28;20615;-78
2020/12/12 08:12:33;;;;;;;21.33;12.80;;;;;;;;;;4971253;28;20357;-79
2020/12/12 08:15:11;;;;;;;22.27;12.50;;;;;;;;;;4969908;28;20634;-78
2020/12/12 08:17:38;;;;;;;18.10;12.17;;;;;;;;;;4957762;28;20347;-77
2020/12/12 08:20:04;;;;;;;22.00;12.90;;;;;;;;;;4970896;28;20258;-78
2020/12/12 08:22:31;;;;;;;21.47;13.23;;;;;;;;;;4979788;28;20262;-77
2020/12/12 08:24:58;;;;;;;22.83;14.00;;;;;;;;;;4969275;28;20278;-77
2020/12/12 08:27:25;;;;;;;32.87;13.37;;;;;;;;;;4961752;28;21126;-77
2020/12/12 08:29:53;;;;;;;25.23;14.20;;;;;;;;;;4969737;28;20341;-78
2020/12/12 08:32:29;;;;;;;24.27;14.83;;;;;;;;;;4962510;28;20267;-78
2020/12/12 08:35:14;;;;;;;23.70;14.60;;;;;;;;;;4962814;28;20262;-79
2020/12/12 08:37:41;;;;;;;22.43;13.60;;;;;;;;;;4980052;28;20286;-78
2020/12/12 08:40:08;;;;;;;18.90;12.37;;;;;;;;;;4976573;28;20282;-79
2020/12/12 08:42:34;;;;;;;22.40;13.30;;;;;;;;;;4979428;28;20316;-79
2020/12/12 08:45:16;;;;;;;22.47;13.70;;;;;;;;;;4981443;28;20289;-79
2020/12/12 08:47:43;;;;;;;23.00;13.30;;;;;;;;;;4977862;28;20312;-79
2020/12/12 08:50:09;;;;;;;18.93;13.23;;;;;;;;;;4989828;28;20294;-78
2020/12/12 08:52:35;;;;;;;21.23;13.97;;;;;;;;;;4989231;28;20049;-79
2020/12/12 08:55:02;;;;;;;22.40;14.20;;;;;;;;;;4994521;28;20045;-80
2020/12/12 08:57:28;;;;;;;23.93;14.70;;;;;;;;;;4983273;28;20035;-79
2020/12/12 09:00:05;;;;;;;23.00;14.10;;;;;;;;;;4981848;28;20062;-78
2020/12/12 09:02:31;;;;;;;19.90;13.27;;;;;;;;;;4986643;28;20039;-78
2020/12/12 09:05:10;;;;;;;21.10;13.17;;;;;;;;;;4988647;28;20031;-76
2020/12/12 09:07:37;;;;;;;23.30;14.33;;;;;;;;;;4975589;28;20040;-79
2020/12/12 09:10:07;;;;;;;22.17;12.57;;;;;;;;;;4978969;28;20057;-80
2020/12/12 09:12:43;;;;;;;18.77;11.73;;;;;;;;;;4972814;28;20092;-80
2020/12/12 09:15:09;;;;;;;19.27;12.60;;;;;;;;;;4967828;28;20034;-80
2020/12/12 09:17:35;;;;;;;19.33;12.37;;;;;;;;;;4957637;28;20038;-81
2020/12/12 09:20:04;;;;;;;21.70;12.80;;;;;;;;;;4962112;28;20030;-79
2020/12/12 09:22:30;;;;;;;19.83;13.20;;;;;;;;;;4970021;28;20146;-78
2020/12/12 09:24:56;;;;;;;22.13;12.43;;;;;;;;;;4961004;28;20082;-79
2020/12/12 09:27:22;;;;;;;20.97;13.37;;;;;;;;;;4959830;28;20030;-81
2020/12/12 09:29:48;;;;;;;17.97;12.07;;;;;;;;;;4983108;28;20058;-79
2020/12/12 09:32:14;;;;;;;21.07;12.90;;;;;;;;;;4966170;28;20490;-78
2020/12/12 09:34:40;;;;;;;17.73;11.67;;;;;;;;;;4966230;28;20086;-80
2020/12/12 09:37:07;;;;;;;19.43;12.10;;;;;;;;;;4970664;28;20081;-78
2020/12/12 09:39:33;;;;;;;19.97;12.43;;;;;;;;;;4974437;28;20027;-78
2020/12/12 09:41:59;;;;;;;18.87;12.07;;;;;;;;;;4978393;28;20031;-78
2020/12/12 09:44:26;;;;;;;20.50;14.10;;;;;;;;;;4987575;28;20374;-78
2020/12/12 09:46:52;;;;;;;17.93;12.23;;;;;;;;;;4964245;28;20029;-78
2020/12/12 09:49:18;;;;;;;17.30;11.97;;;;;;;;;;4969493;28;20055;-80
2020/12/12 09:51:47;;;;;;;19.67;12.50;;;;;;;;;;4964935;28;20027;-79
2020/12/12 09:54:17;;;;;;;18.00;12.30;;;;;;;;;;4975472;28;20022;-80
2020/12/12 09:56:43;;;;;;;19.37;11.77;;;;;;;;;;4969359;28;20073;-79
2020/12/12 09:59:09;;;;;;;17.60;11.53;;;;;;;;;;4979384;28;20031;-79
2020/12/12 10:01:35;;;;;;;19.43;11.97;;;;;;;;;;4978128;28;20070;-77
2020/12/12 10:04:01;;;;;;;18.23;11.77;;;;;;;;;;4972589;28;20035;-77
2020/12/12 10:06:28;;;;;;;17.97;11.63;;;;;;;;;;4976423;28;20198;-80
2020/12/12 10:08:54;;;;;;;18.53;11.47;;;;;;;;;;4970676;28;20042;-80
2020/12/12 10:11:21;;;;;;;16.67;10.87;;;;;;;;;;4966690;28;20511;-79
2020/12/12 10:13:47;;;;;;;17.00;11.30;;;;;;;;;;4962900;28;20031;-80
2020/12/12 10:16:13;;;;;;;17.37;11.63;;;;;;;;;;4973893;28;20553;-80
2020/12/12 10:18:44;;;;;;;17.27;11.60;;;;;;;;;;4973831;28;20085;-79
2020/12/12 10:21:10;;;;;;;17.63;11.27;;;;;;;;;;4973560;28;20054;-78
2020/12/12 10:24:07;;;;;;;17.60;11.20;;;;;;;;;;4963851;28;20033;-79
2020/12/12 10:26:30;;;;;;;18.85;11.20;;;;;;;;;;4971334;28;20038;-78
2020/12/12 10:28:56;;;;;;;19.37;12.10;;;;;;;;;;4960704;28;20034;-79
2020/12/12 10:31:22;;;;;;;19.20;11.50;;;;;;;;;;4964998;28;20117;-79
2020/12/12 10:33:48;;;;;;;17.97;11.83;;;;;;;;;;4972795;28;20162;-78
2020/12/12 10:36:14;;;;;;;16.90;11.13;;;;;;;;;;4955640;28;20043;-78
2020/12/12 10:38:40;;;;;;;18.13;11.17;;;;;;;;;;4971810;28;20078;-79
2020/12/12 10:41:13;;;;;;;16.17;9.90;;;;;;;;;;4970584;28;20082;-78
2020/12/12 10:43:39;;;;;;;16.83;10.63;;;;;;;;;;4963072;28;20027;-78
2020/12/12 10:46:05;;;;;;;16.90;10.60;;;;;;;;;;4971165;28;20055;-79
2020/12/12 10:51:08;;;;;;;15.63;10.27;;;;;;;;;;4967361;28;20035;-77
2020/12/12 10:53:34;;;;;;;16.63;10.30;;;;;;;;;;4972661;28;20035;-78
2020/12/12 10:56:00;;;;;;;16.97;11.47;;;;;;;;;;4963783;28;20070;-78
2020/12/12 10:58:26;;;;;;;14.23;9.10;;;;;;;;;;4965054;28;20027;-79
2020/12/12 11:00:53;;;;;;;16.67;10.13;;;;;;;;;;4964571;28;20030;-78
2020/12/12 11:03:19;;;;;;;15.17;10.00;;;;;;;;;;4954781;28;20027;-78
2020/12/12 11:05:45;;;;;;;14.90;9.80;;;;;;;;;;4961772;28;20491;-78
2020/12/12 11:08:11;;;;;;;15.70;10.17;;;;;;;;;;4959429;28;20041;-78
2020/12/12 11:10:38;;;;;;;15.73;10.53;;;;;;;;;;4958204;28;20023;-78
2020/12/12 11:13:04;;;;;;;16.03;9.07;;;;;;;;;;4970777;28;20023;-78
2020/12/12 11:15:30;;;;;;;14.83;9.30;;;;;;;;;;4959464;28;20557;-78
2020/12/12 11:17:56;;;;;;;14.00;8.57;;;;;;;;;;4966004;28;20125;-79
2020/12/12 11:20:22;;;;;;;13.87;9.00;;;;;;;;;;4965707;28;20034;-77
2020/12/12 11:22:49;;;;;;;12.80;7.97;;;;;;;;;;4957875;28;20054;-79
2020/12/12 11:25:15;;;;;;;14.17;9.53;;;;;;;;;;4980855;28;20464;-79
2020/12/12 11:27:45;;;;;;;13.87;8.73;;;;;;;;;;4987921;28;20023;-78
2020/12/12 11:30:12;;;;;;;13.30;8.97;;;;;;;;;;4955655;28;20031;-78
2020/12/12 11:32:38;;;;;;;19.90;11.57;;;;;;;;;;4970649;28;20031;-78
2020/12/12 11:35:22;;;;;;;13.83;9.20;;;;;;;;;;4957830;28;20089;-79
2020/12/12 11:38:15;;;;;;;14.45;9.75;;;;;;;;;;4963273;28;20057;-79
2020/12/12 11:46:10;;;;;;;17.07;10.20;;;;;;;;;;4966990;28;20058;-78
2020/12/12 11:48:36;;;;;;;15.73;10.63;;;;;;;;;;4959139;28;20055;-78
2020/12/12 11:51:03;;;;;;;15.10;9.90;;;;;;;;;;4954655;28;20038;-78
2020/12/12 11:53:29;;;;;;;15.73;9.77;;;;;;;;;;4969684;28;20023;-78
2020/12/12 11:55:58;;;;;;;17.23;10.47;;;;;;;;;;4963473;28;20382;-77
2020/12/12 11:58:24;;;;;;;15.37;9.97;;;;;;;;;;4964532;28;20442;-78
2020/12/12 12:00:51;;;;;;;16.17;11.17;;;;;;;;;;4968086;28;20030;-78
2020/12/12 12:03:17;;;;;;;15.33;10.00;;;;;;;;;;4953287;28;20502;-78
2020/12/12 12:05:46;;;;;;;16.93;11.50;;;;;;;;;;4962344;28;20034;-78
2020/12/12 12:08:28;;;;;;;23.27;14.03;;;;;;;;;;4962665;28;20042;-78
2020/12/12 12:13:39;;;;;;;17.40;11.00;;;;;;;;;;4972123;28;20074;-78
2020/12/12 12:16:05;;;;;;;16.03;10.27;;;;;;;;;;4957223;28;20031;-78
2020/12/12 12:18:32;;;;;;;134.77;80.60;;;;;;;;;;4963206;28;20039;-78
2020/12/12 12:20:59;;;;;;;81.60;43.93;;;;;;;;;;4963075;28;20035;-77
2020/12/12 12:23:25;;;;;;;27.57;16.87;;;;;;;;;;4969798;28;20034;-78
2020/12/12 12:25:51;;;;;;;15.90;9.83;;;;;;;;;;4972086;28;20022;-80
2020/12/12 12:28:18;;;;;;;14.10;8.67;;;;;;;;;;4952210;28;20039;-78
2020/12/12 12:30:45;;;;;;;13.40;8.63;;;;;;;;;;4967884;28;20117;-79
2020/12/12 12:33:11;;;;;;;16.57;8.87;;;;;;;;;;4971342;28;20085;-77
2020/12/12 12:35:37;;;;;;;12.27;7.67;;;;;;;;;;4974894;28;20039;-78
2020/12/12 12:38:03;;;;;;;15.33;8.50;;;;;;;;;;4964127;28;20031;-78
2020/12/12 12:40:29;;;;;;;15.50;8.73;;;;;;;;;;4987524;28;20031;-78
2020/12/12 12:42:57;;;;;;;13.07;8.40;;;;;;;;;;4957482;28;20034;-79
2020/12/12 12:45:23;;;;;;;17.00;9.70;;;;;;;;;;4967533;28;20035;-79
2020/12/12 12:47:50;;;;;;;15.13;10.03;;;;;;;;;;4967169;28;20178;-79
2020/12/12 12:50:17;;;;;;;15.40;10.13;;;;;;;;;;4966031;28;20055;-79
2020/12/12 12:52:43;;;;;;;18.00;11.30;;;;;;;;;;4965472;28;20051;-79
2020/12/12 12:55:10;;;;;;;18.57;12.13;;;;;;;;;;4967209;28;20037;-78
2020/12/12 12:57:38;;;;;;;17.87;12.07;;;;;;;;;;4962598;28;20063;-78
2020/12/12 13:00:05;;;;;;;17.43;10.87;;;;;;;;;;4961240;28;20059;-79
2020/12/12 13:02:32;;;;;;;14.50;9.57;;;;;;;;;;4968378;28;20034;-79
2020/12/12 13:04:58;;;;;;;16.63;10.10;;;;;;;;;;4959863;28;20071;-78
2020/12/12 13:07:24;;;;;;;16.87;10.70;;;;;;;;;;4960044;28;20027;-78
2020/12/12 13:09:51;;;;;;;14.53;9.90;;;;;;;;;;4961538;28;20023;-78
2020/12/12 13:12:19;;;;;;;16.80;10.43;;;;;;;;;;4962741;28;20034;-78
2020/12/12 13:14:45;;;;;;;16.03;10.70;;;;;;;;;;4967959;28;20037;-78
2020/12/12 13:17:11;;;;;;;19.57;12.70;;;;;;;;;;4973373;28;20512;-79
2020/12/12 13:20:09;;;;;;;22.83;14.57;;;;;;;;;;4964271;28;20030;-78
2020/12/12 13:22:26;;;;;;;30.63;18.07;;;;;;;;;;4966304;28;20043;-78
2020/12/12 13:24:53;;;;;;;40.07;20.87;;;;;;;;;;4975404;28;20026;-78
2020/12/12 13:27:19;;;;;;;37.50;20.33;;;;;;;;;;4968867;28;20074;-78
2020/12/12 13:32:28;;;;;;;27.47;16.57;;;;;;;;;;4957823;28;20032;-78
2020/12/12 13:34:54;;;;;;;30.47;18.53;;;;;;;;;;4959727;28;20514;-78
2020/12/12 13:37:20;;;;;;;28.97;18.50;;;;;;;;;;4973439;28;20102;-77
2020/12/12 13:39:47;;;;;;;27.63;17.33;;;;;;;;;;4987686;28;20028;-79
2020/12/12 13:42:13;;;;;;;28.40;16.50;;;;;;;;;;4988263;28;20030;-80
2020/12/12 13:44:40;;;;;;;29.27;17.93;;;;;;;;;;4966482;28;20617;-79
2020/12/12 13:47:07;;;;;;;27.87;17.10;;;;;;;;;;4964864;28;20038;-79
2020/12/12 13:49:33;;;;;;;33.37;19.17;;;;;;;;;;4957441;28;20118;-78
2020/12/12 13:51:59;;;;;;;35.07;18.97;;;;;;;;;;4984758;28;20026;-77
2020/12/12 13:54:25;;;;;;;34.67;20.43;;;;;;;;;;4974225;28;20031;-77
2020/12/12 13:56:52;;;;;;;37.83;19.90;;;;;;;;;;4965639;28;20109;-77
2020/12/12 13:59:19;;;;;;;38.50;20.87;;;;;;;;;;4973534;28;20042;-77
2020/12/12 14:01:48;;;;;;;36.03;20.60;;;;;;;;;;4960230;28;20042;-78
2020/12/12 14:04:14;;;;;;;30.97;19.03;;;;;;;;;;4973246;28;20052;-78
2020/12/12 14:06:40;;;;;;;33.20;20.00;;;;;;;;;;4975838;28;20038;-78
2020/12/12 14:23:15;;;;;;;35.13;20.30;;;;;;;;;;4954546;28;20066;-78
2020/12/12 14:28:27;;;;;;;31.83;18.67;;;;;;;;;;4962749;28;20050;-78
2020/12/12 14:30:53;;;;;;;33.57;19.53;;;;;;;;;;4971760;28;20556;-78
2020/12/12 14:33:20;;;;;;;37.33;21.57;;;;;;;;;;4966888;28;20031;-78
2020/12/12 14:35:46;;;;;;;39.93;23.67;;;;;;;;;;4966992;28;20027;-78
2020/12/12 14:38:13;;;;;;;105.43;49.60;;;;;;;;;;4967845;28;20662;-78
2020/12/12 14:40:39;;;;;;;71.27;38.03;;;;;;;;;;4965872;28;20070;-77
2020/12/12 14:43:06;;;;;;;42.47;24.23;;;;;;;;;;4963068;28;20065;-78
2020/12/12 14:45:35;;;;;;;41.80;23.77;;;;;;;;;;4969801;28;20102;-79
2020/12/12 14:48:02;;;;;;;41.17;21.57;;;;;;;;;;4966783;28;20067;-79
2020/12/12 14:50:29;;;;;;;46.97;26.23;;;;;;;;;;4971371;28;20617;-78
2020/12/12 14:52:55;;;;;;;49.60;26.97;;;;;;;;;;4974756;28;20132;-78
2020/12/12 14:55:21;;;;;;;47.27;25.37;;;;;;;;;;4980510;28;20114;-78